Glentana, Montana
Current Conditions -  °F | °C
As of 12:53 PM on Wednesday 17 Dec 2014 (Local Time) from KGGW Reporting Station
Overcast Overcast  
Wind Chill:   Ceiling: 900
Heat Index: 22°   Visibility: 10mi
Dew Point: 16°   Wind: 14mph
Humidity: 78%   Direction: 110°ESE
Pressure: 30"   Gusts: NA
Location:  48.85°N, 106.25°W
Report Text: KGGW 171953Z AUTO 11012KT 10SM OVC009 M06/M09 A3000 RMK AO2 SLP200 T10561089
Loading
Personal Weather Stations






























Interactive Weather Map New forecast layout! Learn more

10-Day Weather Forecast

Advertisements
Track Severe Weather on mobile